createdAt,value
2023-03-06T00:00:57.678Z,100.00
2023-03-06T00:03:27.656Z,100.00
2023-03-06T00:05:58.720Z,100.00
2023-03-06T00:08:27.564Z,100.00
2023-03-06T00:10:54.300Z,100.00
2023-03-06T00:13:21.020Z,100.00
2023-03-06T00:15:48.995Z,100.00
2023-03-06T00:18:15.566Z,100.00
2023-03-06T00:20:43.573Z,100.00
2023-03-06T00:23:11.402Z,100.00
2023-03-06T00:25:38.793Z,100.00
2023-03-06T00:28:05.918Z,100.00
2023-03-06T00:30:32.725Z,100.00
2023-03-06T00:32:59.295Z,100.00
2023-03-06T00:35:25.763Z,100.00
2023-03-06T00:37:52.241Z,100.00
2023-03-06T00:40:21.347Z,100.00
2023-03-06T00:42:48.487Z,100.00
2023-03-06T00:45:15.154Z,100.00
2023-03-06T00:47:42.013Z,100.00
2023-03-06T00:50:09.978Z,100.00
2023-03-06T00:52:36.528Z,100.00
2023-03-06T00:55:03.657Z,100.00
2023-03-06T00:57:30.151Z,100.00
2023-03-06T00:59:56.560Z,100.00
2023-03-06T01:02:23.090Z,100.00
2023-03-06T01:04:49.656Z,100.00
2023-03-06T01:07:16.193Z,100.00
2023-03-06T01:09:42.690Z,100.00
2023-03-06T01:12:09.332Z,100.00
2023-03-06T01:14:35.862Z,100.00
2023-03-06T01:17:02.368Z,100.00
2023-03-06T01:19:28.837Z,100.00
2023-03-06T01:21:55.411Z,100.00
2023-03-06T01:24:23.892Z,100.00
2023-03-06T01:26:50.345Z,100.00
2023-03-06T01:29:16.840Z,100.00
2023-03-06T01:31:43.365Z,100.00
2023-03-06T01:34:09.906Z,100.00
2023-03-06T01:36:36.322Z,100.00
2023-03-06T01:39:03.718Z,100.00
2023-03-06T01:41:30.553Z,100.00
2023-03-06T01:43:57.066Z,100.00
2023-03-06T01:46:32.621Z,100.00
2023-03-06T01:49:00.680Z,100.00
2023-03-06T01:51:33.667Z,100.00
2023-03-06T01:54:04.352Z,100.00
2023-03-06T01:56:30.931Z,100.00
2023-03-06T01:58:58.522Z,100.00
2023-03-06T02:01:25.606Z,100.00
2023-03-06T02:03:52.246Z,100.00
2023-03-06T02:06:21.578Z,100.00
2023-03-06T02:08:49.618Z,100.00
2023-03-06T02:11:22.477Z,100.00
2023-03-06T02:13:51.743Z,100.00
2023-03-06T02:16:23.470Z,100.00
2023-03-06T02:18:51.063Z,100.00
2023-03-06T02:21:25.424Z,100.00
2023-03-06T02:24:21.014Z,100.00
2023-03-06T02:26:48.231Z,100.00
2023-03-06T02:29:21.187Z,100.00
2023-03-06T02:31:47.754Z,100.00
2023-03-06T02:34:14.180Z,100.00
2023-03-06T02:36:47.476Z,100.00
2023-03-06T02:39:15.708Z,100.00
2023-03-06T02:41:42.126Z,100.00
2023-03-06T02:44:08.615Z,100.00
2023-03-06T02:46:35.150Z,100.00
2023-03-06T02:49:01.871Z,100.00
2023-03-06T02:51:28.370Z,100.00
2023-03-06T02:53:54.833Z,100.00
2023-03-06T02:56:21.828Z,100.00
2023-03-06T02:58:48.386Z,100.00
2023-03-06T03:01:15.361Z,100.00
2023-03-06T03:03:41.833Z,100.00
2023-03-06T03:06:08.370Z,100.00
2023-03-06T03:08:35.337Z,100.00
2023-03-06T03:11:02.906Z,100.00
2023-03-06T03:13:29.529Z,100.00
2023-03-06T03:16:05.407Z,100.00
2023-03-06T03:18:32.354Z,100.00
2023-03-06T03:20:59.104Z,100.00
2023-03-06T03:23:26.199Z,100.00
2023-03-06T03:25:53.201Z,100.00
2023-03-06T03:28:19.821Z,100.00
2023-03-06T03:30:46.595Z,100.00
2023-03-06T03:33:13.182Z,100.00
2023-03-06T03:35:39.715Z,100.00
2023-03-06T03:38:06.140Z,100.00
2023-03-06T03:40:32.653Z,100.00
2023-03-06T03:42:59.158Z,100.00
2023-03-06T03:45:25.682Z,100.00
2023-03-06T03:47:52.155Z,100.00
2023-03-06T03:50:19.418Z,100.00
2023-03-06T03:52:45.842Z,100.00
2023-03-06T03:55:12.348Z,100.00
2023-03-06T03:57:39.213Z,100.00
2023-03-06T04:00:07.719Z,100.00
2023-03-06T04:02:34.131Z,100.00
2023-03-06T04:05:00.682Z,100.00
2023-03-06T04:07:27.132Z,100.00
2023-03-06T04:09:53.782Z,100.00
2023-03-06T04:12:20.213Z,100.00
2023-03-06T04:14:46.630Z,100.00
2023-03-06T04:17:13.125Z,100.00
2023-03-06T04:19:39.592Z,100.00
2023-03-06T04:22:06.044Z,100.00
2023-03-06T04:24:32.498Z,100.00
2023-03-06T04:26:58.930Z,100.00
2023-03-06T04:29:25.414Z,100.00
2023-03-06T04:31:52.079Z,100.00
2023-03-06T04:34:18.535Z,100.00
2023-03-06T04:36:45.204Z,100.00
2023-03-06T04:39:12.837Z,100.00
2023-03-06T04:41:40.578Z,100.00
2023-03-06T04:44:07.833Z,100.00
2023-03-06T04:46:35.137Z,100.00
2023-03-06T04:49:01.635Z,100.00
2023-03-06T04:51:28.209Z,100.00
2023-03-06T04:53:54.730Z,100.00
2023-03-06T04:56:21.130Z,100.00
2023-03-06T04:58:47.652Z,100.00
2023-03-06T05:01:14.102Z,100.00
2023-03-06T05:03:40.852Z,100.00
2023-03-06T05:06:07.391Z,100.00
2023-03-06T05:08:33.890Z,100.00
2023-03-06T05:11:01.967Z,100.00
2023-03-06T05:13:28.910Z,100.00
2023-03-06T05:15:55.410Z,100.00
2023-03-06T05:18:22.032Z,100.00
2023-03-06T05:20:48.470Z,100.00
2023-03-06T05:23:14.863Z,100.00
2023-03-06T05:25:42.055Z,100.00
2023-03-06T05:28:08.886Z,100.00
2023-03-06T05:30:35.653Z,100.00
2023-03-06T05:33:02.104Z,100.00
2023-03-06T05:35:28.744Z,100.00
2023-03-06T05:37:55.162Z,100.00
2023-03-06T05:40:21.656Z,100.00
2023-03-06T05:42:48.184Z,100.00
2023-03-06T05:45:15.060Z,100.00
2023-03-06T05:47:41.629Z,100.00
2023-03-06T05:50:10.325Z,100.00
2023-03-06T05:52:39.415Z,100.00
2023-03-06T05:55:06.710Z,100.00
2023-03-06T05:57:33.207Z,100.00
2023-03-06T05:59:59.665Z,100.00
2023-03-06T06:02:26.207Z,100.00
2023-03-06T06:04:52.728Z,100.00
2023-03-06T06:07:19.262Z,100.00
2023-03-06T06:09:46.211Z,100.00
2023-03-06T06:12:13.187Z,100.00
2023-03-06T06:14:40.002Z,100.00
2023-03-06T06:17:06.486Z,100.00
2023-03-06T06:19:32.978Z,100.00
2023-03-06T06:21:59.589Z,100.00
2023-03-06T06:24:26.451Z,100.00
2023-03-06T06:26:54.774Z,100.00
2023-03-06T06:29:21.781Z,100.00
2023-03-06T06:31:48.712Z,100.00
2023-03-06T06:34:15.353Z,100.00
2023-03-06T06:36:42.112Z,100.00
2023-03-06T06:39:09.584Z,100.00
2023-03-06T06:41:53.594Z,100.00
2023-03-06T06:44:22.552Z,100.00
2023-03-06T06:47:21.234Z,100.00
2023-03-06T06:49:37.061Z,100.00
2023-03-06T06:52:04.759Z,100.00
2023-03-06T06:54:32.927Z,100.00
2023-03-06T06:56:59.616Z,100.00
2023-03-06T06:59:26.168Z,100.00
2023-03-06T07:01:52.676Z,100.00
2023-03-06T07:04:19.252Z,100.00
2023-03-06T07:06:45.958Z,100.00
2023-03-06T07:09:13.589Z,100.00
2023-03-06T07:11:40.941Z,100.00
2023-03-06T07:14:08.094Z,100.00
2023-03-06T07:16:34.855Z,100.00
2023-03-06T07:19:01.383Z,100.00
2023-03-06T07:21:27.956Z,100.00
2023-03-06T07:23:57.222Z,100.00
2023-03-06T07:26:24.281Z,100.00
2023-03-06T07:28:53.555Z,100.00
2023-03-06T07:31:22.090Z,100.00
2023-03-06T07:33:49.519Z,100.00
2023-03-06T07:36:16.256Z,100.00
2023-03-06T07:38:42.848Z,100.00
2023-03-06T07:41:13.350Z,100.00
2023-03-06T07:43:41.141Z,100.00
2023-03-06T07:46:08.739Z,100.00
2023-03-06T07:48:36.514Z,100.00
2023-03-06T07:51:05.784Z,100.00
2023-03-06T07:53:32.576Z,100.00
2023-03-06T07:55:59.432Z,100.00
2023-03-06T07:58:26.535Z,100.00
2023-03-06T08:00:52.971Z,100.00
2023-03-06T08:03:19.451Z,100.00
2023-03-06T08:05:46.038Z,100.00
2023-03-06T08:08:12.594Z,100.00
2023-03-06T08:10:39.146Z,100.00
2023-03-06T08:13:06.418Z,100.00
2023-03-06T08:15:32.914Z,100.00
2023-03-06T08:17:59.630Z,100.00
2023-03-06T08:20:26.158Z,100.00
2023-03-06T08:22:52.644Z,100.00
2023-03-06T08:25:19.133Z,100.00
2023-03-06T08:27:47.292Z,100.00
2023-03-06T08:30:14.134Z,100.00
2023-03-06T08:32:40.634Z,100.00
2023-03-06T08:35:07.675Z,100.00
2023-03-06T08:37:34.314Z,100.00
2023-03-06T08:40:03.570Z,100.00
2023-03-06T08:42:30.572Z,100.00
2023-03-06T08:44:56.975Z,100.00
2023-03-06T08:47:23.479Z,100.00
2023-03-06T08:49:49.933Z,100.00
2023-03-06T08:52:17.011Z,100.00
2023-03-06T08:54:43.546Z,100.00
2023-03-06T08:57:10.129Z,100.00
2023-03-06T08:59:37.012Z,100.00
2023-03-06T09:02:05.271Z,100.00
2023-03-06T09:04:32.012Z,99.10
2023-03-06T09:07:00.604Z,100.00
2023-03-06T09:09:27.099Z,99.29
2023-03-06T09:11:53.636Z,100.00
2023-03-06T09:14:20.083Z,97.92
2023-03-06T09:16:46.577Z,98.67
2023-03-06T09:19:12.989Z,98.60
2023-03-06T09:21:39.422Z,98.63
2023-03-06T09:24:06.368Z,98.62
2023-03-06T09:26:45.130Z,97.81
2023-03-06T09:29:12.744Z,98.29
2023-03-06T09:31:39.287Z,98.16
2023-03-06T09:34:05.781Z,97.82
2023-03-06T09:36:40.138Z,99.89
2023-03-06T09:39:12.521Z,100.00
2023-03-06T09:41:42.341Z,100.00
2023-03-06T09:44:29.225Z,100.00
2023-03-06T09:47:22.643Z,99.97
2023-03-06T09:50:19.407Z,100.00
2023-03-06T09:52:57.882Z,99.56
2023-03-06T09:55:27.177Z,99.66
2023-03-06T09:57:59.040Z,98.79
2023-03-06T10:00:36.864Z,99.00
2023-03-06T10:03:21.537Z,99.15
2023-03-06T10:05:58.831Z,98.17
2023-03-06T10:08:49.084Z,100.00
2023-03-06T10:11:23.626Z,99.54
2023-03-06T10:14:29.516Z,100.00
2023-03-06T10:16:56.995Z,99.87
2023-03-06T10:19:23.622Z,98.70
2023-03-06T10:21:57.463Z,99.99
2023-03-06T10:24:29.995Z,99.47
2023-03-06T10:27:24.198Z,98.30
2023-03-06T10:30:03.059Z,97.57
2023-03-06T10:32:49.293Z,95.99
2023-03-06T10:35:25.541Z,97.99
2023-03-06T10:38:00.097Z,95.00
2023-03-06T10:40:37.443Z,95.70
2023-03-06T10:43:12.071Z,95.41
2023-03-06T10:45:54.937Z,96.32
2023-03-06T10:48:28.040Z,94.19
2023-03-06T10:51:17.762Z,94.15
2023-03-06T10:54:13.656Z,96.08
2023-03-06T10:56:42.866Z,92.92
2023-03-06T10:59:22.883Z,92.63
2023-03-06T11:01:50.589Z,93.55
2023-03-06T11:04:33.553Z,94.52
2023-03-06T11:07:07.453Z,94.93
2023-03-06T11:09:34.416Z,96.00
2023-03-06T11:12:30.642Z,96.18
2023-03-06T11:15:24.558Z,96.12
2023-03-06T11:17:53.669Z,95.00
2023-03-06T11:20:38.321Z,96.27
2023-03-06T11:23:35.157Z,96.61
2023-03-06T11:26:27.198Z,98.54
2023-03-06T11:29:06.521Z,97.86
2023-03-06T11:31:54.617Z,95.96
2023-03-06T11:34:44.224Z,95.67
2023-03-06T11:37:29.622Z,96.97
2023-03-06T11:40:12.026Z,96.45
2023-03-06T11:42:52.742Z,96.01
2023-03-06T11:45:26.652Z,96.90
2023-03-06T11:48:03.070Z,95.94
2023-03-06T11:50:40.989Z,97.31
2023-03-06T11:53:31.920Z,98.11
2023-03-06T11:56:24.689Z,99.70
2023-03-06T11:59:00.373Z,99.60
2023-03-06T12:01:50.388Z,100.00
2023-03-06T12:04:35.383Z,100.00
2023-03-06T12:07:32.426Z,100.00
2023-03-06T12:10:37.866Z,99.42
2023-03-06T12:13:14.491Z,96.68
2023-03-06T12:16:02.649Z,97.82
2023-03-06T12:18:39.514Z,99.20
2023-03-06T12:21:21.307Z,97.42
2023-03-06T12:24:26.190Z,97.11
2023-03-06T12:27:10.812Z,93.83
2023-03-06T12:29:40.148Z,93.99
2023-03-06T12:32:14.837Z,94.46
2023-03-06T12:35:12.594Z,93.52
2023-03-06T12:37:46.660Z,96.07
2023-03-06T12:40:39.582Z,93.20
2023-03-06T12:43:19.519Z,92.07
2023-03-06T12:45:46.803Z,93.33
2023-03-06T12:48:21.669Z,90.54
2023-03-06T12:50:50.030Z,89.99
2023-03-06T12:53:27.517Z,89.63
2023-03-06T12:55:56.008Z,86.17
2023-03-06T12:58:28.697Z,85.74
2023-03-06T13:01:17.176Z,85.61
2023-03-06T13:04:05.488Z,84.29
2023-03-06T13:06:54.544Z,81.14
2023-03-06T13:09:32.852Z,80.82
2023-03-06T13:12:23.571Z,83.11
2023-03-06T13:14:56.064Z,81.00
2023-03-06T13:17:38.686Z,80.22
2023-03-06T13:20:28.192Z,81.89
2023-03-06T13:22:54.772Z,81.39
2023-03-06T13:25:21.217Z,83.09
2023-03-06T13:28:01.178Z,81.37
2023-03-06T13:30:36.477Z,81.10
2023-03-06T13:33:36.254Z,83.96
2023-03-06T13:36:36.224Z,82.67
2023-03-06T13:39:11.192Z,86.93
2023-03-06T13:41:54.042Z,86.51
2023-03-06T13:44:23.529Z,88.49
2023-03-06T13:47:06.485Z,87.55
2023-03-06T13:49:34.953Z,90.04
2023-03-06T13:52:18.014Z,88.61
2023-03-06T13:55:05.976Z,90.14
2023-03-06T13:57:41.464Z,91.22
2023-03-06T14:00:17.033Z,93.46
2023-03-06T14:03:15.382Z,93.23
2023-03-06T14:05:50.757Z,92.29
2023-03-06T14:08:21.492Z,91.39
2023-03-06T14:10:59.374Z,91.99
2023-03-06T14:13:38.417Z,91.55
2023-03-06T14:16:19.842Z,91.76
2023-03-06T14:18:49.293Z,90.27
2023-03-06T14:21:21.325Z,89.94
2023-03-06T14:24:00.426Z,87.58
2023-03-06T14:26:28.778Z,87.73
2023-03-06T14:28:58.517Z,89.63
2023-03-06T14:31:32.017Z,88.60
2023-03-06T14:34:01.497Z,88.14
2023-03-06T14:36:33.886Z,87.67
2023-03-06T14:39:10.562Z,90.78
2023-03-06T14:41:37.411Z,91.39
2023-03-06T14:44:18.049Z,92.83
2023-03-06T14:47:11.158Z,93.59
2023-03-06T14:49:37.617Z,95.10
2023-03-06T14:52:04.426Z,94.94
2023-03-06T14:54:38.723Z,93.89
2023-03-06T14:57:14.323Z,94.42
2023-03-06T14:59:47.304Z,96.05
2023-03-06T15:02:19.816Z,97.25
2023-03-06T15:04:51.075Z,95.35
2023-03-06T15:07:22.373Z,95.03
2023-03-06T15:09:51.196Z,96.10
2023-03-06T15:12:20.768Z,95.00
2023-03-06T15:15:03.614Z,96.54
2023-03-06T15:17:37.830Z,94.76
2023-03-06T15:20:07.893Z,95.49
2023-03-06T15:22:39.641Z,95.56
2023-03-06T15:25:32.322Z,94.86
2023-03-06T15:28:22.631Z,94.60
2023-03-06T15:31:10.488Z,92.91
2023-03-06T15:33:37.718Z,95.14
2023-03-06T15:36:06.249Z,95.44
2023-03-06T15:38:41.909Z,93.66
2023-03-06T15:41:40.985Z,95.24
2023-03-06T15:44:14.214Z,96.14
2023-03-06T15:46:41.380Z,98.44
2023-03-06T15:49:14.462Z,100.00
2023-03-06T15:51:41.035Z,100.00
2023-03-06T15:54:12.229Z,100.00
2023-03-06T15:56:41.693Z,100.00
2023-03-06T15:59:16.800Z,100.00
2023-03-06T16:01:43.706Z,100.00
2023-03-06T16:04:10.240Z,100.00
2023-03-06T16:06:37.593Z,100.00
2023-03-06T16:09:05.782Z,100.00
2023-03-06T16:11:43.294Z,100.00
2023-03-06T16:14:23.617Z,100.00
2023-03-06T16:16:54.193Z,100.00
2023-03-06T16:19:27.336Z,100.00
2023-03-06T16:21:55.734Z,100.00
2023-03-06T16:24:22.503Z,100.00
2023-03-06T16:26:51.089Z,100.00
2023-03-06T16:29:20.275Z,100.00
2023-03-06T16:31:47.020Z,100.00
2023-03-06T16:34:14.065Z,100.00
2023-03-06T16:36:43.409Z,100.00
2023-03-06T16:39:16.987Z,100.00
2023-03-06T16:41:45.744Z,100.00
2023-03-06T16:44:12.781Z,100.00
2023-03-06T16:46:47.801Z,100.00
2023-03-06T16:49:24.496Z,100.00
2023-03-06T16:51:51.512Z,100.00
2023-03-06T16:54:18.661Z,100.00
2023-03-06T16:56:45.212Z,100.00
2023-03-06T16:59:12.229Z,100.00
2023-03-06T17:01:42.598Z,100.00
2023-03-06T17:04:09.521Z,100.00
2023-03-06T17:06:36.198Z,100.00
2023-03-06T17:09:02.695Z,100.00
2023-03-06T17:11:29.677Z,100.00
2023-03-06T17:13:56.232Z,100.00
2023-03-06T17:16:22.897Z,100.00
2023-03-06T17:18:49.697Z,100.00
2023-03-06T17:21:16.206Z,100.00
2023-03-06T17:23:44.243Z,100.00
2023-03-06T17:26:18.078Z,100.00
2023-03-06T17:28:45.482Z,100.00
2023-03-06T17:31:22.126Z,100.00
2023-03-06T17:33:49.455Z,100.00
2023-03-06T17:36:16.566Z,100.00
2023-03-06T17:38:43.350Z,100.00
2023-03-06T17:41:11.364Z,100.00
2023-03-06T17:43:38.942Z,100.00
2023-03-06T17:46:07.417Z,100.00
2023-03-06T17:48:34.260Z,100.00
2023-03-06T17:51:00.764Z,100.00
2023-03-06T17:53:27.632Z,100.00
2023-03-06T17:55:55.638Z,100.00
2023-03-06T17:58:22.138Z,100.00
2023-03-06T18:00:49.035Z,100.00
2023-03-06T18:03:15.639Z,100.00
2023-03-06T18:05:42.232Z,100.00
2023-03-06T18:08:10.184Z,100.00
2023-03-06T18:10:41.205Z,100.00
2023-03-06T18:13:09.922Z,100.00
2023-03-06T18:15:40.572Z,100.00
2023-03-06T18:18:07.789Z,100.00
2023-03-06T18:20:35.141Z,100.00
2023-03-06T18:23:03.643Z,100.00
2023-03-06T18:25:31.490Z,100.00
2023-03-06T18:27:58.740Z,100.00
2023-03-06T18:30:25.538Z,100.00
2023-03-06T18:32:52.040Z,100.00
2023-03-06T18:35:18.844Z,100.00
2023-03-06T18:37:45.349Z,100.00
2023-03-06T18:40:12.451Z,100.00
2023-03-06T18:42:39.037Z,100.00
2023-03-06T18:45:06.021Z,100.00
2023-03-06T18:47:33.556Z,100.00
2023-03-06T18:49:59.997Z,99.26
2023-03-06T18:52:26.557Z,97.43
2023-03-06T18:54:53.450Z,96.63
2023-03-06T18:57:19.942Z,96.27
2023-03-06T18:59:46.397Z,94.92
2023-03-06T19:02:12.896Z,96.21
2023-03-06T19:04:39.575Z,95.76
2023-03-06T19:07:06.686Z,95.13
2023-03-06T19:09:33.889Z,94.58
2023-03-06T19:12:03.119Z,93.66
2023-03-06T19:14:30.718Z,99.33
2023-03-06T19:16:57.339Z,93.75
2023-03-06T19:19:29.127Z,92.53
2023-03-06T19:21:58.228Z,92.97
2023-03-06T19:24:24.699Z,93.26
2023-03-06T19:26:51.130Z,93.92
2023-03-06T19:29:17.556Z,93.67
2023-03-06T19:31:44.125Z,96.28
2023-03-06T19:34:10.547Z,94.15
2023-03-06T19:36:38.729Z,93.61
2023-03-06T19:39:07.096Z,91.27
2023-03-06T19:41:34.259Z,89.52
2023-03-06T19:44:03.142Z,89.71
2023-03-06T19:46:29.985Z,89.51
2023-03-06T19:49:01.998Z,88.09
2023-03-06T19:51:29.345Z,87.27
2023-03-06T19:53:57.492Z,87.42
2023-03-06T19:56:27.432Z,87.88
2023-03-06T19:58:54.315Z,87.79
2023-03-06T20:01:22.838Z,87.97
2023-03-06T20:03:50.521Z,86.64
2023-03-06T20:06:19.259Z,86.90
2023-03-06T20:08:46.904Z,86.72
2023-03-06T20:11:24.406Z,86.23
2023-03-06T20:13:50.991Z,86.84
2023-03-06T20:16:18.576Z,87.46
2023-03-06T20:18:45.587Z,85.12
2023-03-06T20:21:12.143Z,85.56
2023-03-06T20:23:38.633Z,86.01
2023-03-06T20:26:11.712Z,85.75
2023-03-06T20:28:39.405Z,86.45
2023-03-06T20:31:11.215Z,85.97
2023-03-06T20:33:37.896Z,86.38
2023-03-06T20:36:05.040Z,84.71
2023-03-06T20:38:31.540Z,84.59
2023-03-06T20:40:59.632Z,85.00
2023-03-06T20:43:26.152Z,83.93
2023-03-06T20:46:00.785Z,85.24
2023-03-06T20:48:27.378Z,84.86
2023-03-06T20:51:05.355Z,86.22
2023-03-06T20:53:32.092Z,87.79
2023-03-06T20:55:58.523Z,88.37
2023-03-06T20:58:28.502Z,90.69
2023-03-06T21:00:55.033Z,92.23
2023-03-06T21:03:21.708Z,92.14
2023-03-06T21:05:48.549Z,92.09
2023-03-06T21:08:16.253Z,92.88
2023-03-06T21:10:44.777Z,94.10
2023-03-06T21:13:11.542Z,90.97
2023-03-06T21:15:39.505Z,91.60
2023-03-06T21:18:06.407Z,90.71
2023-03-06T21:20:33.713Z,90.27
2023-03-06T21:23:01.699Z,91.09
2023-03-06T21:25:28.903Z,94.55
2023-03-06T21:27:56.052Z,92.43
2023-03-06T21:30:22.476Z,92.50
2023-03-06T21:32:51.067Z,91.28
2023-03-06T21:35:18.131Z,92.12
2023-03-06T21:37:45.446Z,92.92
2023-03-06T21:40:14.193Z,91.98
2023-03-06T21:42:41.385Z,92.27
2023-03-06T21:45:08.154Z,92.32
2023-03-06T21:47:38.729Z,93.27
2023-03-06T21:50:08.135Z,93.14
2023-03-06T21:52:34.538Z,92.59
2023-03-06T21:55:01.026Z,94.07
2023-03-06T21:57:27.736Z,95.31
2023-03-06T21:59:54.223Z,94.79
2023-03-06T22:02:21.856Z,94.03
2023-03-06T22:04:52.635Z,94.82
2023-03-06T22:07:22.772Z,94.84
2023-03-06T22:09:52.668Z,96.12
2023-03-06T22:12:19.326Z,96.47
2023-03-06T22:14:45.805Z,95.91
2023-03-06T22:17:12.309Z,95.88
2023-03-06T22:19:38.860Z,96.43
2023-03-06T22:22:05.343Z,97.16
2023-03-06T22:24:31.916Z,96.56
2023-03-06T22:26:58.433Z,96.99
2023-03-06T22:29:24.919Z,96.06
2023-03-06T22:31:52.026Z,96.77
2023-03-06T22:34:18.561Z,96.35
2023-03-06T22:36:45.059Z,97.04
2023-03-06T22:39:12.841Z,97.73
2023-03-06T22:41:39.871Z,97.65
2023-03-06T22:44:06.442Z,97.47
2023-03-06T22:46:33.475Z,97.97
2023-03-06T22:49:00.818Z,99.21
2023-03-06T22:51:28.408Z,98.31
2023-03-06T22:53:55.374Z,98.74
2023-03-06T22:56:21.891Z,98.84
2023-03-06T22:58:48.368Z,100.00
2023-03-06T23:01:23.161Z,100.00
2023-03-06T23:03:51.396Z,100.00
2023-03-06T23:06:21.219Z,100.00
2023-03-06T23:09:02.549Z,100.00
2023-03-06T23:11:30.003Z,100.00
2023-03-06T23:13:56.973Z,100.00
2023-03-06T23:16:23.554Z,100.00
2023-03-06T23:18:52.425Z,100.00
2023-03-06T23:21:20.623Z,100.00
2023-03-06T23:23:49.026Z,100.00
2023-03-06T23:26:17.386Z,100.00
2023-03-06T23:28:44.188Z,100.00
2023-03-06T23:31:19.420Z,100.00
2023-03-06T23:33:45.957Z,100.00
2023-03-06T23:36:14.433Z,100.00
2023-03-06T23:38:41.076Z,100.00
2023-03-06T23:41:11.476Z,100.00
2023-03-06T23:43:38.192Z,100.00
2023-03-06T23:46:05.525Z,100.00
2023-03-06T23:48:31.952Z,100.00
2023-03-06T23:50:58.458Z,100.00
2023-03-06T23:53:25.267Z,100.00
2023-03-06T23:55:51.842Z,100.00
2023-03-06T23:58:19.544Z,100.00
